sensor_id;sensor_type;location;lat;lon;timestamp;P1;durP1;ratioP1;P2;durP2;ratioP2
70122;SDS011;57489;37.404;24.920;2023-01-15T00:03:23;58.40;;;33.47;;
70122;SDS011;57489;37.404;24.920;2023-01-15T00:08:23;61.22;;;32.67;;
70122;SDS011;57489;37.404;24.920;2023-01-15T00:13:24;53.15;;;30.90;;
70122;SDS011;57489;37.404;24.920;2023-01-15T00:18:24;53.15;;;31.73;;
70122;SDS011;57489;37.404;24.920;2023-01-15T00:23:24;54.33;;;30.15;;
70122;SDS011;57489;37.404;24.920;2023-01-15T00:28:24;51.13;;;28.88;;
70122;SDS011;57489;37.404;24.920;2023-01-15T00:33:24;51.38;;;30.33;;
70122;SDS011;57489;37.404;24.920;2023-01-15T00:38:25;51.40;;;28.63;;
70122;SDS011;57489;37.404;24.920;2023-01-15T00:43:25;49.57;;;28.03;;
70122;SDS011;57489;37.404;24.920;2023-01-15T00:48:25;46.45;;;26.60;;
70122;SDS011;57489;37.404;24.920;2023-01-15T00:53:25;50.22;;;28.15;;
70122;SDS011;57489;37.404;24.920;2023-01-15T00:58:26;49.20;;;26.98;;
70122;SDS011;57489;37.404;24.920;2023-01-15T01:03:26;50.67;;;27.00;;
70122;SDS011;57489;37.404;24.920;2023-01-15T01:08:26;49.57;;;27.40;;
70122;SDS011;57489;37.404;24.920;2023-01-15T01:13:27;48.73;;;26.70;;
70122;SDS011;57489;37.404;24.920;2023-01-15T01:18:27;45.58;;;26.30;;
70122;SDS011;57489;37.404;24.920;2023-01-15T01:23:27;47.65;;;26.92;;
70122;SDS011;57489;37.404;24.920;2023-01-15T01:28:27;45.25;;;26.48;;
70122;SDS011;57489;37.404;24.920;2023-01-15T01:33:28;43.00;;;23.80;;
70122;SDS011;57489;37.404;24.920;2023-01-15T01:38:28;44.75;;;24.80;;
70122;SDS011;57489;37.404;24.920;2023-01-15T01:43:28;45.07;;;24.90;;
70122;SDS011;57489;37.404;24.920;2023-01-15T01:48:29;44.60;;;24.57;;
70122;SDS011;57489;37.404;24.920;2023-01-15T01:53:31;38.17;;;23.53;;
70122;SDS011;57489;37.404;24.920;2023-01-15T01:58:31;40.30;;;22.33;;
70122;SDS011;57489;37.404;24.920;2023-01-15T02:03:34;42.10;;;22.23;;
70122;SDS011;57489;37.404;24.920;2023-01-15T02:08:35;40.70;;;22.07;;
70122;SDS011;57489;37.404;24.920;2023-01-15T02:13:36;43.63;;;24.60;;
70122;SDS011;57489;37.404;24.920;2023-01-15T02:18:46;43.42;;;22.98;;
70122;SDS011;57489;37.404;24.920;2023-01-15T02:23:53;39.80;;;22.15;;
70122;SDS011;57489;37.404;24.920;2023-01-15T02:28:59;38.60;;;21.83;;
70122;SDS011;57489;37.404;24.920;2023-01-15T02:39:01;41.53;;;23.17;;
70122;SDS011;57489;37.404;24.920;2023-01-15T02:44:03;37.17;;;21.17;;
70122;SDS011;57489;37.404;24.920;2023-01-15T02:49:06;35.90;;;20.15;;
70122;SDS011;57489;37.404;24.920;2023-01-15T02:54:08;36.73;;;20.63;;
70122;SDS011;57489;37.404;24.920;2023-01-15T02:59:21;37.60;;;20.63;;
70122;SDS011;57489;37.404;24.920;2023-01-15T03:09:41;32.47;;;18.47;;
70122;SDS011;57489;37.404;24.920;2023-01-15T03:24:50;33.10;;;19.77;;
70122;SDS011;57489;37.404;24.920;2023-01-15T03:35:44;30.60;;;17.00;;
70122;SDS011;57489;37.404;24.920;2023-01-15T03:45:51;31.27;;;16.90;;
70122;SDS011;57489;37.404;24.920;2023-01-15T03:50:58;32.40;;;18.77;;
70122;SDS011;57489;37.404;24.920;2023-01-15T04:01:04;34.57;;;16.87;;
70122;SDS011;57489;37.404;24.920;2023-01-15T04:06:08;31.23;;;16.50;;
70122;SDS011;57489;37.404;24.920;2023-01-15T04:11:09;34.47;;;16.77;;
70122;SDS011;57489;37.404;24.920;2023-01-15T04:16:09;28.48;;;16.02;;
70122;SDS011;57489;37.404;24.920;2023-01-15T04:21:09;28.58;;;16.38;;
70122;SDS011;57489;37.404;24.920;2023-01-15T04:26:09;30.17;;;15.30;;
70122;SDS011;57489;37.404;24.920;2023-01-15T04:31:10;26.90;;;15.43;;
70122;SDS011;57489;37.404;24.920;2023-01-15T04:36:10;30.55;;;16.88;;
70122;SDS011;57489;37.404;24.920;2023-01-15T04:41:10;28.17;;;15.73;;
70122;SDS011;57489;37.404;24.920;2023-01-15T04:46:10;29.15;;;15.85;;
70122;SDS011;57489;37.404;24.920;2023-01-15T04:51:10;28.15;;;15.88;;
70122;SDS011;57489;37.404;24.920;2023-01-15T04:56:11;26.20;;;15.02;;
70122;SDS011;57489;37.404;24.920;2023-01-15T05:01:12;28.23;;;15.43;;
70122;SDS011;57489;37.404;24.920;2023-01-15T05:06:12;25.60;;;14.40;;
70122;SDS011;57489;37.404;24.920;2023-01-15T05:11:13;27.97;;;15.20;;
70122;SDS011;57489;37.404;24.920;2023-01-15T05:16:14;26.92;;;13.82;;
70122;SDS011;57489;37.404;24.920;2023-01-15T05:21:16;26.48;;;13.93;;
70122;SDS011;57489;37.404;24.920;2023-01-15T05:26:17;25.95;;;14.30;;
70122;SDS011;57489;37.404;24.920;2023-01-15T05:31:17;27.13;;;15.10;;
70122;SDS011;57489;37.404;24.920;2023-01-15T05:36:18;24.83;;;14.18;;
70122;SDS011;57489;37.404;24.920;2023-01-15T05:41:19;23.60;;;13.70;;
70122;SDS011;57489;37.404;24.920;2023-01-15T05:46:20;23.40;;;13.63;;
70122;SDS011;57489;37.404;24.920;2023-01-15T05:51:20;22.83;;;13.03;;
70122;SDS011;57489;37.404;24.920;2023-01-15T05:56:20;20.63;;;12.05;;
70122;SDS011;57489;37.404;24.920;2023-01-15T06:01:21;22.63;;;12.52;;
70122;SDS011;57489;37.404;24.920;2023-01-15T06:06:21;22.60;;;11.93;;
70122;SDS011;57489;37.404;24.920;2023-01-15T06:11:21;24.38;;;12.95;;
70122;SDS011;57489;37.404;24.920;2023-01-15T06:16:22;22.00;;;12.07;;
70122;SDS011;57489;37.404;24.920;2023-01-15T06:21:22;18.97;;;10.93;;
70122;SDS011;57489;37.404;24.920;2023-01-15T06:26:22;19.95;;;11.55;;
70122;SDS011;57489;37.404;24.920;2023-01-15T06:31:23;20.87;;;11.63;;
70122;SDS011;57489;37.404;24.920;2023-01-15T06:36:24;21.00;;;11.10;;
70122;SDS011;57489;37.404;24.920;2023-01-15T06:41:25;21.20;;;11.43;;
70122;SDS011;57489;37.404;24.920;2023-01-15T06:46:25;18.10;;;10.50;;
70122;SDS011;57489;37.404;24.920;2023-01-15T06:51:25;21.45;;;12.27;;
70122;SDS011;57489;37.404;24.920;2023-01-15T06:56:26;18.27;;;10.77;;
70122;SDS011;57489;37.404;24.920;2023-01-15T07:01:26;18.65;;;10.88;;
70122;SDS011;57489;37.404;24.920;2023-01-15T07:06:26;18.47;;;10.60;;
70122;SDS011;57489;37.404;24.920;2023-01-15T07:11:26;19.20;;;10.77;;
70122;SDS011;57489;37.404;24.920;2023-01-15T07:16:27;18.45;;;9.52;;
70122;SDS011;57489;37.404;24.920;2023-01-15T07:21:27;18.10;;;10.27;;
70122;SDS011;57489;37.404;24.920;2023-01-15T07:26:27;17.02;;;10.70;;
70122;SDS011;57489;37.404;24.920;2023-01-15T07:31:27;18.58;;;10.13;;
70122;SDS011;57489;37.404;24.920;2023-01-15T07:36:28;15.83;;;9.20;;
70122;SDS011;57489;37.404;24.920;2023-01-15T07:41:28;16.02;;;8.90;;
70122;SDS011;57489;37.404;24.920;2023-01-15T07:46:28;18.98;;;8.45;;
70122;SDS011;57489;37.404;24.920;2023-01-15T07:51:28;15.50;;;9.38;;
70122;SDS011;57489;37.404;24.920;2023-01-15T07:56:29;18.63;;;7.85;;
70122;SDS011;57489;37.404;24.920;2023-01-15T08:01:29;13.00;;;7.23;;
70122;SDS011;57489;37.404;24.920;2023-01-15T08:06:29;13.02;;;6.55;;
70122;SDS011;57489;37.404;24.920;2023-01-15T08:11:32;12.67;;;6.43;;
70122;SDS011;57489;37.404;24.920;2023-01-15T08:16:35;15.47;;;7.30;;
70122;SDS011;57489;37.404;24.920;2023-01-15T08:21:35;12.32;;;5.75;;
70122;SDS011;57489;37.404;24.920;2023-01-15T08:26:35;11.73;;;5.43;;
70122;SDS011;57489;37.404;24.920;2023-01-15T08:31:35;11.85;;;5.68;;
70122;SDS011;57489;37.404;24.920;2023-01-15T08:36:36;10.10;;;5.10;;
70122;SDS011;57489;37.404;24.920;2023-01-15T08:41:36;10.50;;;4.50;;
70122;SDS011;57489;37.404;24.920;2023-01-15T08:46:36;10.37;;;4.37;;
70122;SDS011;57489;37.404;24.920;2023-01-15T08:51:36;12.35;;;4.32;;
70122;SDS011;57489;37.404;24.920;2023-01-15T08:56:36;11.90;;;4.70;;
70122;SDS011;57489;37.404;24.920;2023-01-15T09:01:37;10.80;;;4.38;;
70122;SDS011;57489;37.404;24.920;2023-01-15T09:06:37;8.93;;;3.95;;
70122;SDS011;57489;37.404;24.920;2023-01-15T09:11:37;12.40;;;4.60;;
70122;SDS011;57489;37.404;24.920;2023-01-15T09:16:38;12.07;;;4.40;;
70122;SDS011;57489;37.404;24.920;2023-01-15T09:21:38;7.43;;;3.88;;
70122;SDS011;57489;37.404;24.920;2023-01-15T09:26:38;9.80;;;3.83;;
70122;SDS011;57489;37.404;24.920;2023-01-15T09:31:39;7.77;;;3.40;;
70122;SDS011;57489;37.404;24.920;2023-01-15T09:36:39;11.35;;;4.45;;
70122;SDS011;57489;37.404;24.920;2023-01-15T09:51:54;9.80;;;4.17;;
70122;SDS011;57489;37.404;24.920;2023-01-15T09:56:57;11.20;;;4.35;;
70122;SDS011;57489;37.404;24.920;2023-01-15T10:01:57;7.53;;;3.67;;
70122;SDS011;57489;37.404;24.920;2023-01-15T10:07:01;9.13;;;3.90;;
70122;SDS011;57489;37.404;24.920;2023-01-15T10:12:06;8.70;;;4.73;;
70122;SDS011;57489;37.404;24.920;2023-01-15T10:17:21;8.55;;;4.18;;
70122;SDS011;57489;37.404;24.920;2023-01-15T10:22:30;10.00;;;4.15;;
70122;SDS011;57489;37.404;24.920;2023-01-15T10:27:33;8.13;;;3.70;;
70122;SDS011;57489;37.404;24.920;2023-01-15T10:48:28;8.80;;;3.97;;
70122;SDS011;57489;37.404;24.920;2023-01-15T10:53:40;9.23;;;3.30;;
70122;SDS011;57489;37.404;24.920;2023-01-15T10:58:43;12.25;;;4.13;;
70122;SDS011;57489;37.404;24.920;2023-01-15T11:03:45;9.23;;;3.97;;
70122;SDS011;57489;37.404;24.920;2023-01-15T11:08:50;9.40;;;3.70;;
70122;SDS011;57489;37.404;24.920;2023-01-15T11:13:51;10.20;;;4.03;;
70122;SDS011;57489;37.404;24.920;2023-01-15T11:18:52;9.98;;;3.88;;
70122;SDS011;57489;37.404;24.920;2023-01-15T11:23:53;9.48;;;4.63;;
70122;SDS011;57489;37.404;24.920;2023-01-15T11:28:54;7.57;;;3.80;;
70122;SDS011;57489;37.404;24.920;2023-01-15T11:33:57;8.33;;;4.07;;
70122;SDS011;57489;37.404;24.920;2023-01-15T11:38:58;9.03;;;3.63;;
70122;SDS011;57489;37.404;24.920;2023-01-15T11:43:58;8.73;;;4.30;;
70122;SDS011;57489;37.404;24.920;2023-01-15T11:48:58;9.10;;;4.30;;
70122;SDS011;57489;37.404;24.920;2023-01-15T11:54:00;8.15;;;3.92;;
70122;SDS011;57489;37.404;24.920;2023-01-15T11:59:02;14.18;;;4.07;;
70122;SDS011;57489;37.404;24.920;2023-01-15T12:04:17;11.00;;;4.00;;
70122;SDS011;57489;37.404;24.920;2023-01-15T12:25:06;8.37;;;3.90;;
70122;SDS011;57489;37.404;24.920;2023-01-15T12:45:19;8.10;;;4.37;;
70122;SDS011;57489;37.404;24.920;2023-01-15T12:55:25;7.97;;;4.53;;
70122;SDS011;57489;37.404;24.920;2023-01-15T13:00:34;9.87;;;5.37;;
70122;SDS011;57489;37.404;24.920;2023-01-15T13:05:38;9.67;;;5.30;;
70122;SDS011;57489;37.404;24.920;2023-01-15T13:10:40;10.88;;;4.78;;
70122;SDS011;57489;37.404;24.920;2023-01-15T13:21:00;9.23;;;4.70;;
70122;SDS011;57489;37.404;24.920;2023-01-15T13:41:36;8.20;;;3.97;;
70122;SDS011;57489;37.404;24.920;2023-01-15T13:46:36;9.80;;;4.43;;
70122;SDS011;57489;37.404;24.920;2023-01-15T13:51:37;9.95;;;4.68;;
70122;SDS011;57489;37.404;24.920;2023-01-15T13:56:38;9.82;;;4.68;;
70122;SDS011;57489;37.404;24.920;2023-01-15T14:01:38;9.65;;;4.40;;
70122;SDS011;57489;37.404;24.920;2023-01-15T14:06:42;10.68;;;4.45;;
70122;SDS011;57489;37.404;24.920;2023-01-15T14:21:59;10.60;;;5.13;;
70122;SDS011;57489;37.404;24.920;2023-01-15T14:42:40;9.55;;;4.60;;
70122;SDS011;57489;37.404;24.920;2023-01-15T14:47:44;9.15;;;4.60;;
70122;SDS011;57489;37.404;24.920;2023-01-15T14:52:45;10.07;;;4.60;;
70122;SDS011;57489;37.404;24.920;2023-01-15T14:57:52;12.85;;;5.15;;
70122;SDS011;57489;37.404;24.920;2023-01-15T15:02:54;9.20;;;4.10;;
70122;SDS011;57489;37.404;24.920;2023-01-15T15:07:54;9.07;;;4.63;;
70122;SDS011;57489;37.404;24.920;2023-01-15T15:12:59;8.13;;;4.17;;
70122;SDS011;57489;37.404;24.920;2023-01-15T15:18:01;7.95;;;3.97;;
70122;SDS011;57489;37.404;24.920;2023-01-15T15:23:08;8.27;;;4.03;;
70122;SDS011;57489;37.404;24.920;2023-01-15T15:28:10;11.23;;;3.80;;
70122;SDS011;57489;37.404;24.920;2023-01-15T15:33:20;10.50;;;4.47;;
70122;SDS011;57489;37.404;24.920;2023-01-15T15:38:22;8.40;;;3.92;;
70122;SDS011;57489;37.404;24.920;2023-01-15T15:43:28;8.10;;;3.97;;
70122;SDS011;57489;37.404;24.920;2023-01-15T15:48:32;8.40;;;4.60;;
70122;SDS011;57489;37.404;24.920;2023-01-15T15:53:33;11.67;;;5.07;;
70122;SDS011;57489;37.404;24.920;2023-01-15T15:58:34;10.90;;;5.65;;
70122;SDS011;57489;37.404;24.920;2023-01-15T16:03:35;18.20;;;7.68;;
70122;SDS011;57489;37.404;24.920;2023-01-15T16:08:36;33.63;;;11.70;;
70122;SDS011;57489;37.404;24.920;2023-01-15T16:13:41;48.85;;;14.73;;
70122;SDS011;57489;37.404;24.920;2023-01-15T16:18:44;56.17;;;17.07;;
70122;SDS011;57489;37.404;24.920;2023-01-15T16:23:55;49.20;;;15.45;;
70122;SDS011;57489;37.404;24.920;2023-01-15T16:28:56;55.83;;;16.40;;
70122;SDS011;57489;37.404;24.920;2023-01-15T16:33:57;56.63;;;15.13;;
70122;SDS011;57489;37.404;24.920;2023-01-15T16:38:57;44.63;;;14.40;;
70122;SDS011;57489;37.404;24.920;2023-01-15T16:44:01;47.63;;;13.80;;
70122;SDS011;57489;37.404;24.920;2023-01-15T17:09:30;36.03;;;11.13;;
70122;SDS011;57489;37.404;24.920;2023-01-15T17:14:31;32.47;;;11.10;;
70122;SDS011;57489;37.404;24.920;2023-01-15T17:19:31;35.97;;;10.05;;
70122;SDS011;57489;37.404;24.920;2023-01-15T17:24:32;32.70;;;10.38;;
70122;SDS011;57489;37.404;24.920;2023-01-15T17:29:32;31.17;;;9.80;;
70122;SDS011;57489;37.404;24.920;2023-01-15T17:34:32;34.08;;;10.27;;
70122;SDS011;57489;37.404;24.920;2023-01-15T17:39:32;29.52;;;10.07;;
70122;SDS011;57489;37.404;24.920;2023-01-15T17:44:33;32.85;;;11.10;;
70122;SDS011;57489;37.404;24.920;2023-01-15T17:49:33;28.35;;;11.60;;
70122;SDS011;57489;37.404;24.920;2023-01-15T17:54:33;33.67;;;13.40;;
70122;SDS011;57489;37.404;24.920;2023-01-15T17:59:33;31.10;;;12.40;;
70122;SDS011;57489;37.404;24.920;2023-01-15T18:04:41;32.25;;;12.52;;
70122;SDS011;57489;37.404;24.920;2023-01-15T18:09:43;29.10;;;12.48;;
70122;SDS011;57489;37.404;24.920;2023-01-15T18:14:43;28.13;;;11.50;;
70122;SDS011;57489;37.404;24.920;2023-01-15T18:19:44;29.35;;;11.43;;
70122;SDS011;57489;37.404;24.920;2023-01-15T18:24:44;31.30;;;11.52;;
70122;SDS011;57489;37.404;24.920;2023-01-15T18:29:44;27.73;;;11.68;;
70122;SDS011;57489;37.404;24.920;2023-01-15T18:34:44;29.10;;;11.70;;
70122;SDS011;57489;37.404;24.920;2023-01-15T18:39:45;28.97;;;10.17;;
70122;SDS011;57489;37.404;24.920;2023-01-15T18:44:45;22.30;;;10.20;;
70122;SDS011;57489;37.404;24.920;2023-01-15T18:49:45;29.20;;;9.77;;
70122;SDS011;57489;37.404;24.920;2023-01-15T18:54:46;29.73;;;10.00;;
70122;SDS011;57489;37.404;24.920;2023-01-15T18:59:46;25.20;;;9.43;;
70122;SDS011;57489;37.404;24.920;2023-01-15T19:04:46;22.53;;;8.87;;
70122;SDS011;57489;37.404;24.920;2023-01-15T19:09:47;25.50;;;8.85;;
70122;SDS011;57489;37.404;24.920;2023-01-15T19:14:47;20.40;;;8.50;;
70122;SDS011;57489;37.404;24.920;2023-01-15T19:19:47;20.37;;;8.47;;
70122;SDS011;57489;37.404;24.920;2023-01-15T19:24:47;21.50;;;9.43;;
70122;SDS011;57489;37.404;24.920;2023-01-15T19:29:48;20.30;;;8.90;;
70122;SDS011;57489;37.404;24.920;2023-01-15T19:34:48;21.15;;;8.02;;
70122;SDS011;57489;37.404;24.920;2023-01-15T19:39:48;21.38;;;8.10;;
70122;SDS011;57489;37.404;24.920;2023-01-15T19:44:48;20.40;;;7.07;;
70122;SDS011;57489;37.404;24.920;2023-01-15T19:49:48;20.15;;;6.53;;
70122;SDS011;57489;37.404;24.920;2023-01-15T19:54:49;25.33;;;8.27;;
70122;SDS011;57489;37.404;24.920;2023-01-15T19:59:49;27.00;;;8.60;;
70122;SDS011;57489;37.404;24.920;2023-01-15T20:04:49;17.53;;;8.00;;
70122;SDS011;57489;37.404;24.920;2023-01-15T20:09:51;24.27;;;8.07;;
70122;SDS011;57489;37.404;24.920;2023-01-15T20:14:51;21.03;;;7.73;;
70122;SDS011;57489;37.404;24.920;2023-01-15T20:19:51;19.50;;;7.28;;
70122;SDS011;57489;37.404;24.920;2023-01-15T20:24:52;18.88;;;7.05;;
70122;SDS011;57489;37.404;24.920;2023-01-15T20:29:52;17.77;;;7.03;;
70122;SDS011;57489;37.404;24.920;2023-01-15T20:34:52;20.10;;;7.68;;
70122;SDS011;57489;37.404;24.920;2023-01-15T20:39:52;20.55;;;6.57;;
70122;SDS011;57489;37.404;24.920;2023-01-15T20:44:53;18.75;;;6.00;;
70122;SDS011;57489;37.404;24.920;2023-01-15T20:49:53;16.85;;;6.95;;
70122;SDS011;57489;37.404;24.920;2023-01-15T20:54:53;14.70;;;6.05;;
70122;SDS011;57489;37.404;24.920;2023-01-15T20:59:53;17.85;;;6.75;;
70122;SDS011;57489;37.404;24.920;2023-01-15T21:04:53;18.02;;;5.85;;
70122;SDS011;57489;37.404;24.920;2023-01-15T21:09:54;15.83;;;6.10;;
70122;SDS011;57489;37.404;24.920;2023-01-15T21:14:54;17.85;;;5.82;;
70122;SDS011;57489;37.404;24.920;2023-01-15T21:19:54;14.85;;;5.85;;
70122;SDS011;57489;37.404;24.920;2023-01-15T21:24:54;16.48;;;5.95;;
70122;SDS011;57489;37.404;24.920;2023-01-15T21:29:55;14.43;;;5.65;;
70122;SDS011;57489;37.404;24.920;2023-01-15T21:34:56;15.95;;;5.85;;
70122;SDS011;57489;37.404;24.920;2023-01-15T21:39:56;17.27;;;6.38;;
70122;SDS011;57489;37.404;24.920;2023-01-15T21:44:56;15.93;;;5.40;;
70122;SDS011;57489;37.404;24.920;2023-01-15T21:49:56;15.83;;;5.93;;
70122;SDS011;57489;37.404;24.920;2023-01-15T21:54:57;15.48;;;5.40;;
70122;SDS011;57489;37.404;24.920;2023-01-15T21:59:57;17.67;;;5.93;;
70122;SDS011;57489;37.404;24.920;2023-01-15T22:04:57;14.07;;;5.40;;
70122;SDS011;57489;37.404;24.920;2023-01-15T22:09:58;12.75;;;5.82;;
70122;SDS011;57489;37.404;24.920;2023-01-15T22:14:58;11.68;;;5.38;;
70122;SDS011;57489;37.404;24.920;2023-01-15T22:19:58;14.98;;;5.30;;
70122;SDS011;57489;37.404;24.920;2023-01-15T22:24:58;11.45;;;4.78;;
70122;SDS011;57489;37.404;24.920;2023-01-15T22:29:59;15.63;;;5.57;;
70122;SDS011;57489;37.404;24.920;2023-01-15T22:34:59;11.10;;;4.97;;
70122;SDS011;57489;37.404;24.920;2023-01-15T22:39:59;13.40;;;5.22;;
70122;SDS011;57489;37.404;24.920;2023-01-15T22:44:59;15.65;;;5.00;;
70122;SDS011;57489;37.404;24.920;2023-01-15T22:49:59;11.73;;;4.43;;
70122;SDS011;57489;37.404;24.920;2023-01-15T22:55:00;14.47;;;5.37;;
70122;SDS011;57489;37.404;24.920;2023-01-15T23:00:00;13.00;;;5.38;;
70122;SDS011;57489;37.404;24.920;2023-01-15T23:05:00;13.93;;;5.40;;
70122;SDS011;57489;37.404;24.920;2023-01-15T23:10:00;13.02;;;4.93;;
70122;SDS011;57489;37.404;24.920;2023-01-15T23:15:01;12.30;;;5.03;;
70122;SDS011;57489;37.404;24.920;2023-01-15T23:20:01;16.08;;;4.75;;
70122;SDS011;57489;37.404;24.920;2023-01-15T23:25:01;11.00;;;4.28;;
70122;SDS011;57489;37.404;24.920;2023-01-15T23:30:02;9.93;;;4.55;;
70122;SDS011;57489;37.404;24.920;2023-01-15T23:35:02;9.50;;;3.97;;
70122;SDS011;57489;37.404;24.920;2023-01-15T23:40:03;9.80;;;4.03;;
70122;SDS011;57489;37.404;24.920;2023-01-15T23:45:03;11.73;;;4.30;;
70122;SDS011;57489;37.404;24.920;2023-01-15T23:50:04;11.03;;;3.70;;
70122;SDS011;57489;37.404;24.920;2023-01-15T23:55:04;10.03;;;4.17;;
